createdAt,value
2023-02-19T00:01:21.497Z,100917.00
2023-02-19T00:02:53.225Z,100921.00
2023-02-19T00:04:24.957Z,100915.40
2023-02-19T00:05:56.703Z,100922.20
2023-02-19T00:07:28.370Z,100919.20
2023-02-19T00:09:00.829Z,100919.20
2023-02-19T00:10:32.598Z,100918.80
2023-02-19T00:12:04.532Z,100917.80
2023-02-19T00:13:42.102Z,100923.40
2023-02-19T00:15:13.850Z,100930.80
2023-02-19T00:16:46.507Z,100928.60
2023-02-19T00:18:18.212Z,100927.00
2023-02-19T00:19:49.885Z,100924.20
2023-02-19T00:21:22.411Z,100921.60
2023-02-19T00:22:54.115Z,100923.00
2023-02-19T00:24:25.790Z,100921.80
2023-02-19T00:26:17.101Z,100926.40
2023-02-19T00:27:50.065Z,100913.20
2023-02-19T00:29:22.628Z,100914.80
2023-02-19T00:30:54.474Z,100921.40
2023-02-19T00:32:26.286Z,100916.60
2023-02-19T00:34:04.047Z,100914.60
2023-02-19T00:35:35.923Z,100912.80
2023-02-19T00:37:07.662Z,100918.40
2023-02-19T00:38:42.021Z,100914.20
2023-02-19T00:40:14.117Z,100909.40
2023-02-19T00:41:46.541Z,100901.20
2023-02-19T00:43:18.515Z,100896.00
2023-02-19T00:44:50.327Z,100904.20
2023-02-19T00:46:36.340Z,100900.80
2023-02-19T00:48:08.091Z,100899.00
2023-02-19T00:49:39.836Z,100896.40
2023-02-19T00:51:11.892Z,100890.80
2023-02-19T00:52:43.764Z,100897.20
2023-02-19T00:54:17.258Z,100902.20
2023-02-19T00:55:48.946Z,100896.80
2023-02-19T00:57:20.646Z,100894.80
2023-02-19T00:58:52.860Z,100899.20
2023-02-19T01:00:24.611Z,100893.20
2023-02-19T01:01:56.474Z,100893.20
2023-02-19T01:03:28.617Z,100894.40
2023-02-19T01:05:00.401Z,100890.00
2023-02-19T01:06:32.717Z,100895.40
2023-02-19T01:08:04.645Z,100899.40
2023-02-19T01:09:36.394Z,100896.00
2023-02-19T01:11:10.406Z,100889.40
2023-02-19T01:12:42.572Z,100894.00
2023-02-19T01:14:14.450Z,100891.00
2023-02-19T01:15:46.438Z,100892.40
2023-02-19T01:17:18.499Z,100897.40
2023-02-19T01:18:50.701Z,100894.00
2023-02-19T01:20:23.245Z,100896.60
2023-02-19T01:21:54.954Z,100896.20
2023-02-19T01:23:26.777Z,100895.00
2023-02-19T01:24:58.641Z,100899.40
2023-02-19T01:26:32.514Z,100896.60
2023-02-19T01:28:04.509Z,100895.00
2023-02-19T01:29:36.504Z,100892.00
2023-02-19T01:31:14.080Z,100892.20
2023-02-19T01:32:46.022Z,100886.60
2023-02-19T01:34:17.754Z,100885.80
2023-02-19T01:35:49.555Z,100881.20
2023-02-19T01:37:21.244Z,100885.20
2023-02-19T01:38:53.314Z,100883.60
2023-02-19T01:40:26.321Z,100882.80
2023-02-19T01:41:58.574Z,100887.20
2023-02-19T01:43:34.625Z,100891.40
2023-02-19T01:45:39.047Z,100887.20
2023-02-19T01:47:12.081Z,100894.00
2023-02-19T01:48:43.856Z,100884.60
2023-02-19T01:50:16.607Z,100882.00
2023-02-19T01:51:54.301Z,100885.00
2023-02-19T01:53:32.437Z,100882.40
2023-02-19T01:55:12.684Z,100885.80
2023-02-19T01:56:47.935Z,100891.40
2023-02-19T01:58:20.057Z,100885.40
2023-02-19T02:00:00.192Z,100893.40
2023-02-19T02:01:32.547Z,100890.60
2023-02-19T02:03:04.920Z,100893.00
2023-02-19T02:04:36.620Z,100899.40
2023-02-19T02:06:21.347Z,100895.20
2023-02-19T02:08:11.789Z,100907.20
2023-02-19T02:10:15.744Z,100904.00
2023-02-19T02:11:51.560Z,100898.00
2023-02-19T02:13:23.875Z,100900.00
2023-02-19T02:14:55.688Z,100896.00
2023-02-19T02:17:11.967Z,100899.60
2023-02-19T02:18:58.440Z,100899.40
2023-02-19T02:21:07.657Z,100901.20
2023-02-19T02:22:54.875Z,100899.80
2023-02-19T02:25:10.466Z,100906.00
2023-02-19T02:27:13.698Z,100897.20
2023-02-19T02:29:15.903Z,100905.40
2023-02-19T02:30:57.952Z,100907.60
2023-02-19T02:32:53.535Z,100906.00
2023-02-19T02:34:36.786Z,100900.40
2023-02-19T02:36:19.966Z,100897.00
2023-02-19T02:37:56.969Z,100896.20
2023-02-19T02:39:32.473Z,100900.20
2023-02-19T02:41:05.967Z,100900.60
2023-02-19T02:42:40.535Z,100902.00
2023-02-19T02:44:15.073Z,100909.00
2023-02-19T02:45:46.922Z,100904.40
2023-02-19T02:47:57.298Z,100905.00
2023-02-19T02:49:29.786Z,100902.00
2023-02-19T02:51:18.148Z,100900.60
2023-02-19T02:53:21.816Z,100897.00
2023-02-19T02:55:03.113Z,100904.60
2023-02-19T02:56:36.341Z,100905.40
2023-02-19T02:58:09.602Z,100901.00
2023-02-19T02:59:44.011Z,100905.00
2023-02-19T03:01:51.763Z,100905.60
2023-02-19T03:03:27.448Z,100909.00
2023-02-19T03:05:40.156Z,100902.40
2023-02-19T03:07:12.626Z,100910.00
2023-02-19T03:09:00.476Z,100909.80
2023-02-19T03:10:53.286Z,100912.00
2023-02-19T03:12:47.728Z,100904.40
2023-02-19T03:14:54.329Z,100909.20
2023-02-19T03:16:51.517Z,100907.60
2023-02-19T03:18:47.124Z,100917.00
2023-02-19T03:20:23.529Z,100912.60
2023-02-19T03:22:16.184Z,100910.80
2023-02-19T03:24:08.214Z,100916.00
2023-02-19T03:25:59.733Z,100918.40
2023-02-19T03:27:43.805Z,100922.00
2023-02-19T03:29:25.809Z,100927.40
2023-02-19T03:31:04.632Z,100927.80
2023-02-19T03:32:42.143Z,100926.20
2023-02-19T03:34:22.630Z,100922.00
2023-02-19T03:36:03.472Z,100928.80
2023-02-19T03:38:18.479Z,100931.00
2023-02-19T03:39:52.882Z,100937.40
2023-02-19T03:41:43.143Z,100942.60
2023-02-19T03:43:24.536Z,100944.40
2023-02-19T03:45:15.487Z,100938.80
2023-02-19T03:47:03.371Z,100953.20
2023-02-19T03:49:02.262Z,100960.40
2023-02-19T03:50:50.130Z,100955.20
2023-02-19T03:52:26.204Z,100960.20
2023-02-19T03:54:37.913Z,100962.60
2023-02-19T03:56:19.945Z,100961.60
2023-02-19T03:58:22.396Z,100965.00
2023-02-19T04:00:33.629Z,100964.00
2023-02-19T04:02:25.961Z,100968.20
2023-02-19T04:04:07.285Z,100967.60
2023-02-19T04:05:48.385Z,100968.80
2023-02-19T04:07:22.621Z,100968.60
2023-02-19T04:09:00.166Z,100967.80
2023-02-19T04:10:32.524Z,100972.80
2023-02-19T04:12:06.905Z,100972.60
2023-02-19T04:13:48.413Z,100972.40
2023-02-19T04:15:27.465Z,100982.40
2023-02-19T04:17:08.729Z,100981.40
2023-02-19T04:18:45.220Z,100990.60
2023-02-19T04:20:20.826Z,100991.40
2023-02-19T04:21:56.630Z,100994.20
2023-02-19T04:23:35.693Z,100995.20
2023-02-19T04:25:09.059Z,100996.20
2023-02-19T04:26:42.576Z,101000.00
2023-02-19T04:28:16.554Z,101003.80
2023-02-19T04:29:48.430Z,101004.40
2023-02-19T04:31:20.368Z,101000.40
2023-02-19T04:32:52.123Z,101004.80
2023-02-19T04:34:23.821Z,100999.20
2023-02-19T04:35:55.513Z,101004.80
2023-02-19T04:37:27.216Z,101006.00
2023-02-19T04:38:59.850Z,101007.80
2023-02-19T04:40:31.667Z,101013.80
2023-02-19T04:42:04.100Z,101009.80
2023-02-19T04:43:35.800Z,101019.40
2023-02-19T04:45:08.178Z,101013.80
2023-02-19T04:46:43.122Z,101023.60
2023-02-19T04:48:15.024Z,101018.20
2023-02-19T04:49:46.819Z,101016.80
2023-02-19T04:51:19.250Z,101018.80
2023-02-19T04:52:51.005Z,101022.40
2023-02-19T04:54:25.770Z,101030.80
2023-02-19T04:55:57.464Z,101029.00
2023-02-19T04:57:29.155Z,101031.80
2023-02-19T04:59:00.994Z,101027.60
2023-02-19T05:00:34.063Z,101031.80
2023-02-19T05:02:05.866Z,101031.60
2023-02-19T05:03:37.942Z,101036.40
2023-02-19T05:05:09.646Z,101030.80
2023-02-19T05:06:41.297Z,101037.20
2023-02-19T05:08:13.125Z,101035.60
2023-02-19T05:09:44.811Z,101036.40
2023-02-19T05:11:16.516Z,101040.20
2023-02-19T05:12:48.268Z,101037.00
2023-02-19T05:14:20.055Z,101042.80
2023-02-19T05:16:15.882Z,101048.80
2023-02-19T05:17:47.588Z,101042.80
2023-02-19T05:19:19.338Z,101051.60
2023-02-19T05:20:52.748Z,101055.40
2023-02-19T05:22:24.445Z,101058.80
2023-02-19T05:23:56.136Z,101056.00
2023-02-19T05:25:27.810Z,101056.00
2023-02-19T05:26:59.597Z,101057.80
2023-02-19T05:28:31.328Z,101063.20
2023-02-19T05:30:03.318Z,101066.00
2023-02-19T05:31:35.208Z,101068.40
2023-02-19T05:33:06.990Z,101069.00
2023-02-19T05:34:38.751Z,101071.80
2023-02-19T05:36:13.745Z,101068.80
2023-02-19T05:37:45.446Z,101071.80
2023-02-19T05:39:17.240Z,101076.60
2023-02-19T05:40:49.331Z,101079.60
2023-02-19T05:42:21.128Z,101077.80
2023-02-19T05:43:54.131Z,101081.60
2023-02-19T05:45:26.290Z,101086.20
2023-02-19T05:46:58.324Z,101090.80
2023-02-19T05:48:30.081Z,101086.60
2023-02-19T05:50:01.777Z,101090.80
2023-02-19T05:51:33.511Z,101093.20
2023-02-19T05:53:05.870Z,101093.60
2023-02-19T05:54:37.530Z,101092.00
2023-02-19T05:56:40.962Z,101099.00
2023-02-19T05:58:12.671Z,101102.60
2023-02-19T05:59:44.361Z,101101.60
2023-02-19T06:01:19.650Z,101096.80
2023-02-19T06:02:51.321Z,101099.40
2023-02-19T06:04:23.504Z,101094.00
2023-02-19T06:05:55.306Z,101099.60
2023-02-19T06:07:26.957Z,101103.20
2023-02-19T06:08:58.666Z,101112.60
2023-02-19T06:10:30.407Z,101110.00
2023-02-19T06:12:02.096Z,101112.80
2023-02-19T06:13:33.909Z,101111.60
2023-02-19T06:15:06.916Z,101113.00
2023-02-19T06:16:38.651Z,101112.60
2023-02-19T06:18:10.392Z,101113.60
2023-02-19T06:19:42.281Z,101116.80
2023-02-19T06:21:17.411Z,101117.00
2023-02-19T06:22:52.159Z,101121.00
2023-02-19T06:24:23.881Z,101119.60
2023-02-19T06:25:55.672Z,101118.60
2023-02-19T06:27:28.103Z,101123.00
2023-02-19T06:28:59.836Z,101125.40
2023-02-19T06:30:31.671Z,101130.40
2023-02-19T06:32:04.938Z,101128.60
2023-02-19T06:33:40.430Z,101125.60
2023-02-19T06:35:12.178Z,101130.60
2023-02-19T06:36:44.543Z,101132.20
2023-02-19T06:38:16.392Z,101130.40
2023-02-19T06:39:48.254Z,101132.40
2023-02-19T06:41:20.078Z,101133.80
2023-02-19T06:42:51.743Z,101138.80
2023-02-19T06:44:24.687Z,101139.60
2023-02-19T06:46:00.131Z,101141.40
2023-02-19T06:47:33.494Z,101146.60
2023-02-19T06:49:06.016Z,101144.40
2023-02-19T06:50:37.865Z,101146.40
2023-02-19T06:52:09.614Z,101150.00
2023-02-19T06:53:41.976Z,101151.80
2023-02-19T06:55:13.851Z,101154.00
2023-02-19T06:56:47.075Z,101159.80
2023-02-19T06:58:18.954Z,101164.80
2023-02-19T06:59:50.610Z,101168.60
2023-02-19T07:01:23.899Z,101166.20
2023-02-19T07:02:56.692Z,101169.20
2023-02-19T07:04:28.942Z,101173.20
2023-02-19T07:06:00.939Z,101176.80
2023-02-19T07:07:32.711Z,101178.60
2023-02-19T07:09:07.129Z,101184.40
2023-02-19T07:10:38.993Z,101187.00
2023-02-19T07:12:10.812Z,101189.60
2023-02-19T07:13:42.506Z,101196.20
2023-02-19T07:15:14.215Z,101201.20
2023-02-19T07:16:47.474Z,101209.20
2023-02-19T07:18:19.304Z,101201.00
2023-02-19T07:19:51.126Z,101203.60
2023-02-19T07:21:25.136Z,101211.60
2023-02-19T07:22:57.644Z,101212.80
2023-02-19T07:24:29.436Z,101212.40
2023-02-19T07:26:01.307Z,101214.80
2023-02-19T07:27:33.137Z,101219.60
2023-02-19T07:29:04.892Z,101218.20
2023-02-19T07:30:36.830Z,101217.60
2023-02-19T07:32:08.978Z,101222.00
2023-02-19T07:33:44.482Z,101229.00
2023-02-19T07:35:16.224Z,101230.80
2023-02-19T07:36:50.073Z,101234.00
2023-02-19T07:38:24.323Z,101232.60
2023-02-19T07:39:55.962Z,101237.60
2023-02-19T07:41:28.236Z,101236.00
2023-02-19T07:43:01.504Z,101239.40
2023-02-19T07:44:33.461Z,101242.40
2023-02-19T07:46:11.708Z,101247.60
2023-02-19T07:47:43.641Z,101251.60
2023-02-19T07:49:15.478Z,101250.40
2023-02-19T07:50:54.551Z,101250.00
2023-02-19T07:52:27.045Z,101254.60
2023-02-19T07:53:58.754Z,101246.40
2023-02-19T07:55:32.663Z,101251.80
2023-02-19T07:57:04.342Z,101250.60
2023-02-19T07:58:36.076Z,101251.60
2023-02-19T08:00:08.316Z,101260.20
2023-02-19T08:02:02.679Z,101259.60
2023-02-19T08:03:35.293Z,101259.00
2023-02-19T08:05:07.508Z,101262.00
2023-02-19T08:06:40.239Z,101267.20
2023-02-19T08:08:14.684Z,101274.20
2023-02-19T08:10:06.369Z,101283.60
2023-02-19T08:11:57.031Z,101284.00
2023-02-19T08:13:31.116Z,101294.20
2023-02-19T08:15:02.867Z,101300.20
2023-02-19T08:16:43.064Z,101296.40
2023-02-19T08:18:17.584Z,101298.40
2023-02-19T08:19:49.218Z,101301.20
2023-02-19T08:21:21.131Z,101298.20
2023-02-19T08:22:52.818Z,101296.20
2023-02-19T08:24:24.563Z,101294.40
2023-02-19T08:26:02.133Z,101297.20
2023-02-19T08:27:33.845Z,101300.40
2023-02-19T08:29:06.548Z,101292.40
2023-02-19T08:30:40.862Z,101296.20
2023-02-19T08:32:12.618Z,101291.20
2023-02-19T08:33:44.347Z,101293.80
2023-02-19T08:35:16.229Z,101297.20
2023-02-19T08:36:47.877Z,101300.60
2023-02-19T08:38:19.601Z,101305.20
2023-02-19T08:39:51.339Z,101307.80
2023-02-19T08:41:23.079Z,101308.40
2023-02-19T08:42:54.862Z,101308.20
2023-02-19T08:44:26.545Z,101311.80
2023-02-19T08:45:58.266Z,101307.00
2023-02-19T08:47:30.141Z,101306.00
2023-02-19T08:49:01.820Z,101309.40
2023-02-19T08:50:34.580Z,101308.40
2023-02-19T08:52:06.278Z,101310.20
2023-02-19T08:53:40.373Z,101308.60
2023-02-19T08:55:12.055Z,101304.40
2023-02-19T08:56:43.951Z,101307.00
2023-02-19T08:58:15.779Z,101310.20
2023-02-19T08:59:47.454Z,101313.00
2023-02-19T09:01:19.418Z,101319.80
2023-02-19T09:02:51.254Z,101321.60
2023-02-19T09:04:23.003Z,101329.40
2023-02-19T09:05:54.875Z,101325.60
2023-02-19T09:07:27.083Z,101328.60
2023-02-19T09:08:58.837Z,101334.20
2023-02-19T09:10:30.534Z,101339.20
2023-02-19T09:12:06.102Z,101345.00
2023-02-19T09:13:37.872Z,101339.40
2023-02-19T09:15:10.124Z,101343.00
2023-02-19T09:16:41.911Z,101342.40
2023-02-19T09:18:13.632Z,101348.60
2023-02-19T09:19:45.511Z,101353.60
2023-02-19T09:21:17.161Z,101358.00
2023-02-19T09:22:48.958Z,101354.20
2023-02-19T09:24:21.011Z,101360.00
2023-02-19T09:26:00.651Z,101366.80
2023-02-19T09:27:33.281Z,101363.40
2023-02-19T09:29:04.972Z,101368.40
2023-02-19T09:30:36.849Z,101369.40
2023-02-19T09:32:08.678Z,101370.00
2023-02-19T09:33:48.205Z,101373.00
2023-02-19T09:35:19.933Z,101375.20
2023-02-19T09:36:52.455Z,101371.60
2023-02-19T09:38:24.195Z,101373.00
2023-02-19T09:39:55.957Z,101377.40
2023-02-19T09:41:46.395Z,101373.60
2023-02-19T09:43:22.215Z,101374.40
2023-02-19T09:44:58.860Z,101372.40
2023-02-19T09:46:46.270Z,101371.80
2023-02-19T09:48:18.066Z,101376.00
2023-02-19T09:49:56.750Z,101385.80
2023-02-19T09:51:30.516Z,101389.20
2023-02-19T09:53:13.770Z,101388.00
2023-02-19T09:54:47.278Z,101395.80
2023-02-19T09:56:19.168Z,101398.80
2023-02-19T09:57:52.449Z,101403.80
2023-02-19T09:59:33.623Z,101410.80
2023-02-19T10:01:07.847Z,101407.60
2023-02-19T10:02:39.720Z,101411.20
2023-02-19T10:04:11.691Z,101420.20
2023-02-19T10:05:43.588Z,101426.00
2023-02-19T10:07:19.977Z,101427.20
2023-02-19T10:08:59.975Z,101436.20
2023-02-19T10:10:37.274Z,101434.00
2023-02-19T10:12:23.179Z,101440.40
2023-02-19T10:14:21.572Z,101452.00
2023-02-19T10:16:00.706Z,101454.20
2023-02-19T10:17:34.696Z,101455.60
2023-02-19T10:19:13.604Z,101452.80
2023-02-19T10:20:47.542Z,101449.60
2023-02-19T10:22:20.697Z,101443.60
2023-02-19T10:23:58.969Z,101448.60
2023-02-19T10:25:33.878Z,101455.20
2023-02-19T10:27:12.921Z,101458.00
2023-02-19T10:28:44.627Z,101462.60
2023-02-19T10:30:29.334Z,101471.00
2023-02-19T10:32:14.659Z,101481.00
2023-02-19T10:33:56.707Z,101483.20
2023-02-19T10:35:29.963Z,101489.00
2023-02-19T10:37:01.936Z,101483.80
2023-02-19T10:38:47.500Z,101473.40
2023-02-19T10:40:23.375Z,101479.80
2023-02-19T10:41:55.204Z,101478.80
2023-02-19T10:43:34.029Z,101482.80
2023-02-19T10:45:13.552Z,101484.00
2023-02-19T10:46:52.100Z,101471.60
2023-02-19T10:48:33.374Z,101468.20
2023-02-19T10:50:05.518Z,101479.20
2023-02-19T10:51:41.827Z,101483.00
2023-02-19T10:53:25.935Z,101482.20
2023-02-19T10:55:24.395Z,101491.00
2023-02-19T10:57:15.380Z,101502.40
2023-02-19T10:58:47.696Z,101506.80
2023-02-19T11:00:28.910Z,101512.40
2023-02-19T11:02:20.476Z,101513.40
2023-02-19T11:04:17.664Z,101508.80
2023-02-19T11:06:06.607Z,101496.40
2023-02-19T11:07:45.695Z,101500.20
2023-02-19T11:09:39.022Z,101504.00
2023-02-19T11:11:20.982Z,101504.80
2023-02-19T11:12:57.670Z,101513.60
2023-02-19T11:14:32.248Z,101508.40
2023-02-19T11:16:05.333Z,101506.80
2023-02-19T11:17:37.241Z,101511.60
2023-02-19T11:19:26.387Z,101511.00
2023-02-19T11:21:02.406Z,101513.80
2023-02-19T11:22:42.343Z,101512.60
2023-02-19T11:24:38.013Z,101509.40
2023-02-19T11:26:23.571Z,101502.80
2023-02-19T11:28:31.292Z,101501.80
2023-02-19T11:30:30.458Z,101502.80
2023-02-19T11:32:20.670Z,101512.20
2023-02-19T11:34:01.616Z,101520.20
2023-02-19T11:35:33.312Z,101523.20
2023-02-19T11:37:15.063Z,101513.20
2023-02-19T11:38:46.933Z,101509.20
2023-02-19T11:40:18.825Z,101508.40
2023-02-19T11:42:14.949Z,101506.40
2023-02-19T11:43:57.499Z,101504.40
2023-02-19T11:45:51.355Z,101502.40
2023-02-19T11:47:44.099Z,101498.20
2023-02-19T11:49:37.076Z,101502.80
2023-02-19T11:51:21.411Z,101494.40
2023-02-19T11:53:05.233Z,101496.60
2023-02-19T11:55:07.411Z,101504.20
2023-02-19T11:56:43.123Z,101496.60
2023-02-19T11:58:39.316Z,101496.60
2023-02-19T12:00:13.802Z,101500.00
2023-02-19T12:02:06.004Z,101495.00
2023-02-19T12:04:09.255Z,101501.20
2023-02-19T12:06:10.599Z,101498.40
2023-02-19T12:08:22.613Z,101501.00
2023-02-19T12:10:31.598Z,101511.40
2023-02-19T12:12:26.291Z,101521.00
2023-02-19T12:14:09.994Z,101521.40
2023-02-19T12:16:00.858Z,101525.20
2023-02-19T12:18:20.629Z,101518.60
2023-02-19T12:20:01.506Z,101524.00
2023-02-19T12:21:35.986Z,101526.40
2023-02-19T12:23:38.572Z,101525.80
2023-02-19T12:25:29.744Z,101525.60
2023-02-19T12:28:04.686Z,101526.60
2023-02-19T12:30:14.074Z,101531.20
2023-02-19T12:32:13.220Z,101535.00
2023-02-19T12:34:06.861Z,101540.20
2023-02-19T12:36:22.049Z,101540.00
2023-02-19T12:38:08.792Z,101547.40
2023-02-19T12:40:32.973Z,101538.60
2023-02-19T12:42:42.859Z,101536.40
2023-02-19T12:44:27.999Z,101531.40
2023-02-19T12:46:21.556Z,101532.60
2023-02-19T12:48:24.019Z,101543.60
2023-02-19T12:50:24.829Z,101549.40
2023-02-19T12:52:07.066Z,101546.20
2023-02-19T12:54:04.728Z,101546.80
2023-02-19T12:55:44.758Z,101551.60
2023-02-19T12:57:24.718Z,101554.80
2023-02-19T12:59:05.132Z,101554.60
2023-02-19T13:01:05.496Z,101559.80
2023-02-19T13:03:08.291Z,101561.40
2023-02-19T13:04:49.377Z,101562.20
2023-02-19T13:06:41.334Z,101561.20
2023-02-19T13:08:42.053Z,101561.40
2023-02-19T13:10:41.196Z,101555.40
2023-02-19T13:12:26.595Z,101559.40
2023-02-19T13:14:13.297Z,101557.20
2023-02-19T13:15:55.431Z,101562.60
2023-02-19T13:17:51.206Z,101560.00
2023-02-19T13:19:23.118Z,101555.40
2023-02-19T13:20:56.387Z,101557.20
2023-02-19T13:23:20.773Z,101557.40
2023-02-19T13:24:54.589Z,101560.00
2023-02-19T13:27:17.420Z,101562.20
2023-02-19T13:29:22.460Z,101568.60
2023-02-19T13:31:44.538Z,101576.80
2023-02-19T13:33:32.776Z,101579.00
2023-02-19T13:35:42.432Z,101580.40
2023-02-19T13:37:16.289Z,101584.40
2023-02-19T13:38:50.552Z,101582.60
2023-02-19T13:40:25.169Z,101584.60
2023-02-19T13:42:01.947Z,101586.60
2023-02-19T13:43:38.878Z,101590.80
2023-02-19T13:45:28.230Z,101593.60
2023-02-19T13:47:00.732Z,101597.20
2023-02-19T13:48:37.148Z,101598.00
2023-02-19T13:50:25.731Z,101599.00
2023-02-19T13:52:00.208Z,101601.60
2023-02-19T13:54:00.992Z,101601.40
2023-02-19T13:55:49.890Z,101604.60
2023-02-19T13:57:24.610Z,101604.20
2023-02-19T13:59:26.743Z,101604.80
2023-02-19T14:01:14.099Z,101609.60
2023-02-19T14:02:46.023Z,101609.80
2023-02-19T14:04:47.369Z,101613.80
2023-02-19T14:06:19.387Z,101619.80
2023-02-19T14:07:55.403Z,101623.20
2023-02-19T14:09:38.921Z,101627.80
2023-02-19T14:11:14.265Z,101627.20
2023-02-19T14:12:46.083Z,101623.20
2023-02-19T14:14:35.230Z,101624.20
2023-02-19T14:16:53.154Z,101626.60
2023-02-19T14:19:00.463Z,101629.20
2023-02-19T14:20:45.330Z,101634.20
2023-02-19T14:22:50.050Z,101637.60
2023-02-19T14:24:23.504Z,101647.00
2023-02-19T14:26:01.195Z,101651.20
2023-02-19T14:27:33.129Z,101651.20
2023-02-19T14:29:10.582Z,101651.80
2023-02-19T14:30:57.660Z,101647.40
2023-02-19T14:32:29.407Z,101648.80
2023-02-19T14:34:06.984Z,101651.60
2023-02-19T14:35:44.965Z,101647.20
2023-02-19T14:37:21.028Z,101646.40
2023-02-19T14:39:16.120Z,101645.80
2023-02-19T14:40:49.727Z,101643.40
2023-02-19T14:42:32.405Z,101644.60
2023-02-19T14:44:14.822Z,101639.20
2023-02-19T14:46:00.258Z,101640.40
2023-02-19T14:47:35.041Z,101640.20
2023-02-19T14:49:44.441Z,101641.80
2023-02-19T14:51:33.508Z,101632.60
2023-02-19T14:53:07.850Z,101633.00
2023-02-19T14:54:48.055Z,101637.00
2023-02-19T14:56:26.003Z,101635.80
2023-02-19T14:58:00.906Z,101630.60
2023-02-19T14:59:32.607Z,101636.20
2023-02-19T15:01:05.469Z,101631.20
2023-02-19T15:02:43.037Z,101631.80
2023-02-19T15:04:29.016Z,101630.60
2023-02-19T15:06:15.589Z,101633.00
2023-02-19T15:07:48.003Z,101631.00
2023-02-19T15:09:21.855Z,101622.00
2023-02-19T15:10:53.823Z,101622.60
2023-02-19T15:12:32.659Z,101623.60
2023-02-19T15:14:08.477Z,101623.40
2023-02-19T15:15:46.283Z,101621.80
2023-02-19T15:17:29.880Z,101618.40
2023-02-19T15:19:07.575Z,101612.60
2023-02-19T15:20:41.714Z,101602.60
2023-02-19T15:22:21.788Z,101597.60
2023-02-19T15:23:57.141Z,101588.20
2023-02-19T15:25:38.344Z,101584.40
2023-02-19T15:27:19.964Z,101581.20
2023-02-19T15:29:00.880Z,101573.20
2023-02-19T15:30:32.617Z,101568.80
2023-02-19T15:32:18.811Z,101566.80
2023-02-19T15:33:52.586Z,101567.00
2023-02-19T15:35:27.618Z,101565.40
2023-02-19T15:37:07.834Z,101569.60
2023-02-19T15:38:39.794Z,101573.20
2023-02-19T15:40:14.855Z,101563.40
2023-02-19T15:41:53.562Z,101571.80
2023-02-19T15:43:30.360Z,101568.20
2023-02-19T15:45:21.161Z,101570.80
2023-02-19T15:46:53.920Z,101577.00
2023-02-19T15:48:44.470Z,101580.60
2023-02-19T15:50:19.928Z,101575.60
2023-02-19T15:52:07.550Z,101584.40
2023-02-19T15:53:49.765Z,101584.60
2023-02-19T15:55:45.267Z,101585.40
2023-02-19T15:57:24.781Z,101589.20
2023-02-19T15:59:19.009Z,101589.20
2023-02-19T16:00:55.508Z,101591.40
2023-02-19T16:02:27.812Z,101590.20
2023-02-19T16:04:00.472Z,101599.20
2023-02-19T16:05:39.271Z,101602.00
2023-02-19T16:07:31.993Z,101596.00
2023-02-19T16:09:05.986Z,101596.60
2023-02-19T16:10:38.790Z,101600.20
2023-02-19T16:12:25.066Z,101605.20
2023-02-19T16:14:16.021Z,101603.60
2023-02-19T16:16:16.296Z,101601.80
2023-02-19T16:17:48.245Z,101602.40
2023-02-19T16:19:23.958Z,101606.60
2023-02-19T16:20:56.305Z,101611.40
2023-02-19T16:22:41.260Z,101611.80
2023-02-19T16:24:35.253Z,101614.00
2023-02-19T16:26:07.032Z,101613.40
2023-02-19T16:27:42.271Z,101620.60
2023-02-19T16:29:21.268Z,101622.40
2023-02-19T16:31:04.292Z,101620.40
2023-02-19T16:32:36.216Z,101621.00
2023-02-19T16:34:47.151Z,101618.20
2023-02-19T16:36:41.949Z,101620.60
2023-02-19T16:38:17.784Z,101623.40
2023-02-19T16:40:16.794Z,101622.80
2023-02-19T16:41:48.529Z,101622.40
2023-02-19T16:43:42.591Z,101625.20
2023-02-19T16:45:14.409Z,101627.60
2023-02-19T16:46:50.073Z,101630.40
2023-02-19T16:48:23.596Z,101635.80
2023-02-19T16:49:58.928Z,101640.40
2023-02-19T16:51:30.722Z,101647.60
2023-02-19T16:53:04.280Z,101648.40
2023-02-19T16:54:36.850Z,101644.60
2023-02-19T16:56:18.557Z,101660.00
2023-02-19T16:57:50.898Z,101662.60
2023-02-19T16:59:22.627Z,101663.60
2023-02-19T17:00:54.435Z,101670.20
2023-02-19T17:02:26.258Z,101674.60
2023-02-19T17:04:04.480Z,101678.00
2023-02-19T17:05:38.348Z,101674.00
2023-02-19T17:07:15.466Z,101674.60
2023-02-19T17:08:47.219Z,101676.60
2023-02-19T17:10:28.538Z,101683.40
2023-02-19T17:12:00.252Z,101693.20
2023-02-19T17:13:32.643Z,101692.40
2023-02-19T17:15:04.565Z,101704.40
2023-02-19T17:16:42.187Z,101700.20
2023-02-19T17:18:14.016Z,101700.20
2023-02-19T17:19:45.681Z,101702.60
2023-02-19T17:21:28.457Z,101703.60
2023-02-19T17:23:00.211Z,101700.60
2023-02-19T17:24:31.947Z,101696.80
2023-02-19T17:26:03.808Z,101703.00
2023-02-19T17:27:36.023Z,101704.80
2023-02-19T17:29:14.828Z,101704.80
2023-02-19T17:30:46.531Z,101709.20
2023-02-19T17:32:18.451Z,101719.00
2023-02-19T17:33:51.101Z,101719.60
2023-02-19T17:35:23.165Z,101721.00
2023-02-19T17:36:55.209Z,101710.40
2023-02-19T17:38:26.932Z,101713.00
2023-02-19T17:39:58.595Z,101711.00
2023-02-19T17:41:30.569Z,101703.20
2023-02-19T17:43:03.284Z,101706.00
2023-02-19T17:44:35.055Z,101703.60
2023-02-19T17:46:06.938Z,101707.60
2023-02-19T17:47:38.627Z,101709.20
2023-02-19T17:49:12.597Z,101715.80
2023-02-19T17:50:44.306Z,101714.00
2023-02-19T17:52:17.756Z,101714.40
2023-02-19T17:53:49.841Z,101717.40
2023-02-19T17:55:21.737Z,101717.40
2023-02-19T17:56:53.446Z,101713.40
2023-02-19T17:58:25.148Z,101722.40
2023-02-19T17:59:56.864Z,101718.00
2023-02-19T18:01:28.568Z,101715.60
2023-02-19T18:03:00.227Z,101715.20
2023-02-19T18:04:31.916Z,101717.80
2023-02-19T18:06:04.926Z,101722.40
2023-02-19T18:07:36.670Z,101714.60
2023-02-19T18:09:08.408Z,101716.60
2023-02-19T18:10:40.238Z,101717.80
2023-02-19T18:12:12.009Z,101717.20
2023-02-19T18:13:43.893Z,101713.40
2023-02-19T18:15:26.805Z,101717.20
2023-02-19T18:16:58.914Z,101720.40
2023-02-19T18:18:30.656Z,101724.60
2023-02-19T18:20:04.630Z,101731.80
2023-02-19T18:21:36.341Z,101725.20
2023-02-19T18:23:08.058Z,101729.40
2023-02-19T18:24:50.023Z,101733.00
2023-02-19T18:26:21.742Z,101741.20
2023-02-19T18:27:53.779Z,101744.60
2023-02-19T18:29:27.116Z,101759.40
2023-02-19T18:30:59.057Z,101767.40
2023-02-19T18:32:30.906Z,101769.80
2023-02-19T18:34:03.322Z,101770.20
2023-02-19T18:35:35.011Z,101774.20
2023-02-19T18:37:06.701Z,101776.40
2023-02-19T18:38:39.341Z,101782.60
2023-02-19T18:40:12.430Z,101781.20
2023-02-19T18:41:49.043Z,101778.00
2023-02-19T18:43:20.834Z,101784.80
2023-02-19T18:44:53.729Z,101787.00
2023-02-19T18:46:25.443Z,101791.40
2023-02-19T18:47:57.383Z,101790.40